Dentsville, Maryland
Current Conditions -  °F | °C
As of 4:56 AM on Saturday 22 Nov 2014 (Local Time) from KNYG Reporting Station
Clear Clear  
Wind Chill: 13°   Ceiling: Unl
Heat Index: 22°   Visibility: 10mi
Dew Point: 16°   Wind: 7mph
Humidity: 78%   Direction: 300°WNW
Pressure: 30.56"   Gusts: NA
Location:  38.5166°N, 76.9981°W
Report Text: KNYG 220956Z 30006KT 10SM CLR M06/M09 A3056 RMK AO2 SLP349 T10561089 $
Loading
Personal Weather Stations






























Interactive Weather Map New forecast layout! Learn more

10-Day Weather Forecast

Advertisements
Track Severe Weather on mobile